createdAt,value
2019-01-30T00:01:15.922Z,2.22
2019-01-30T00:03:44.989Z,2.14
2019-01-30T00:06:14.036Z,2.09
2019-01-30T00:08:43.118Z,2.07
2019-01-30T00:11:12.192Z,2.10
2019-01-30T00:13:41.250Z,2.14
2019-01-30T00:16:10.343Z,2.16
2019-01-30T00:18:39.400Z,2.19
2019-01-30T00:21:08.461Z,2.21
2019-01-30T00:23:37.568Z,2.21
2019-01-30T00:26:06.616Z,2.22
2019-01-30T00:28:35.677Z,2.24
2019-01-30T00:31:04.752Z,2.25
2019-01-30T00:33:33.812Z,2.24
2019-01-30T00:36:02.862Z,2.25
2019-01-30T00:38:31.944Z,2.26
2019-01-30T00:41:00.998Z,2.27
2019-01-30T00:43:30.054Z,2.26
2019-01-30T00:45:59.152Z,2.22
2019-01-30T00:48:28.204Z,2.15
2019-01-30T00:50:57.397Z,2.10
2019-01-30T00:53:26.421Z,2.05
2019-01-30T00:55:55.479Z,1.97
2019-01-30T00:58:24.539Z,1.90
2019-01-30T01:00:53.624Z,1.85
2019-01-30T01:03:22.683Z,1.83
2019-01-30T01:05:51.734Z,1.82
2019-01-30T01:08:20.864Z,1.81
2019-01-30T01:10:49.927Z,1.81
2019-01-30T01:13:18.990Z,1.79
2019-01-30T01:15:48.076Z,1.77
2019-01-30T01:18:17.147Z,1.74
2019-01-30T01:20:46.204Z,1.70
2019-01-30T01:23:15.293Z,1.67
2019-01-30T01:25:44.349Z,1.63
2019-01-30T01:28:13.411Z,1.58
2019-01-30T01:30:42.543Z,1.53
2019-01-30T01:33:11.601Z,1.51
2019-01-30T01:35:40.659Z,1.53
2019-01-30T01:38:09.736Z,1.57
2019-01-30T01:40:38.800Z,1.62
2019-01-30T01:43:07.859Z,1.69
2019-01-30T01:45:36.946Z,1.75
2019-01-30T01:48:06.002Z,1.78
2019-01-30T01:50:35.071Z,1.80
2019-01-30T01:53:04.205Z,1.78
2019-01-30T01:55:33.255Z,1.73
2019-01-30T01:58:02.309Z,1.74
2019-01-30T02:00:35.500Z,1.77
2019-01-30T02:03:00.445Z,1.82
2019-01-30T02:05:29.508Z,1.88
2019-01-30T02:07:58.597Z,1.94
2019-01-30T02:10:27.650Z,1.97
2019-01-30T02:12:56.716Z,2.01
2019-01-30T02:15:25.834Z,2.03
2019-01-30T02:17:54.887Z,2.07
2019-01-30T02:20:23.944Z,2.13
2019-01-30T02:22:53.029Z,2.17
2019-01-30T02:25:22.090Z,2.20
2019-01-30T02:27:51.145Z,2.20
2019-01-30T02:30:21.084Z,2.21
2019-01-30T02:32:50.139Z,2.24
2019-01-30T02:35:19.203Z,2.27
2019-01-30T02:37:48.307Z,2.29
2019-01-30T02:40:17.365Z,2.32
2019-01-30T02:42:46.423Z,2.34
2019-01-30T02:45:15.803Z,2.35
2019-01-30T02:47:44.812Z,2.34
2019-01-30T02:50:13.878Z,2.34
2019-01-30T02:52:42.956Z,2.36
2019-01-30T02:55:12.009Z,2.37
2019-01-30T02:57:41.070Z,2.38
2019-01-30T03:00:15.893Z,2.36
2019-01-30T03:02:44.951Z,2.35
2019-01-30T03:05:14.010Z,2.34
2019-01-30T03:07:43.086Z,2.34
2019-01-30T03:10:13.027Z,2.33
2019-01-30T03:12:42.091Z,2.33
2019-01-30T03:15:11.183Z,2.33
2019-01-30T03:17:40.253Z,2.32
2019-01-30T03:20:09.308Z,2.31
2019-01-30T03:22:38.411Z,2.30
2019-01-30T03:25:08.199Z,2.28
2019-01-30T03:27:37.252Z,2.26
2019-01-30T03:30:06.345Z,2.27
2019-01-30T03:32:35.416Z,2.27
2019-01-30T03:35:04.470Z,2.27
2019-01-30T03:37:33.562Z,2.23
2019-01-30T03:40:02.601Z,2.23
2019-01-30T03:42:31.661Z,2.23
2019-01-30T03:45:00.768Z,2.22
2019-01-30T03:47:29.817Z,2.23
2019-01-30T03:49:58.884Z,2.22
2019-01-30T03:52:28.045Z,2.21
2019-01-30T03:54:57.109Z,2.22
2019-01-30T03:57:28.735Z,2.24
2019-01-30T03:59:55.244Z,2.25
2019-01-30T04:02:24.298Z,2.28
2019-01-30T04:04:53.354Z,2.29
2019-01-30T04:07:22.460Z,2.28
2019-01-30T04:09:51.526Z,2.29
2019-01-30T04:12:20.589Z,2.30
2019-01-30T04:14:49.673Z,2.30
2019-01-30T04:17:18.729Z,2.27
2019-01-30T04:19:47.789Z,2.20
2019-01-30T04:22:16.884Z,2.14
2019-01-30T04:24:45.943Z,2.04
2019-01-30T04:27:15.007Z,1.96
2019-01-30T04:29:44.169Z,1.89
2019-01-30T04:32:13.224Z,1.85
2019-01-30T04:34:42.272Z,1.83
2019-01-30T04:37:11.459Z,1.81
2019-01-30T04:39:40.522Z,1.79
2019-01-30T04:42:09.587Z,1.78
2019-01-30T04:44:38.678Z,1.77
2019-01-30T04:47:08.755Z,1.77
2019-01-30T04:49:37.813Z,1.76
2019-01-30T04:52:06.914Z,1.78
2019-01-30T04:54:36.100Z,1.79
2019-01-30T04:57:05.111Z,1.80
2019-01-30T04:59:34.186Z,1.80
2019-01-30T05:02:03.238Z,1.82
2019-01-30T05:04:32.290Z,1.83
2019-01-30T05:07:03.396Z,1.82
2019-01-30T05:09:32.446Z,1.82
2019-01-30T05:12:01.497Z,1.81
2019-01-30T05:14:30.698Z,1.79
2019-01-30T05:16:59.873Z,1.77
2019-01-30T05:19:28.802Z,1.75
2019-01-30T05:21:57.895Z,1.71
2019-01-30T05:24:26.953Z,1.69
2019-01-30T05:26:56.010Z,1.67
2019-01-30T05:29:25.146Z,1.65
2019-01-30T05:32:00.959Z,1.62
2019-01-30T05:34:23.222Z,1.61
2019-01-30T05:36:57.680Z,1.60
2019-01-30T05:39:26.737Z,1.58
2019-01-30T05:41:55.797Z,1.59
2019-01-30T05:44:24.883Z,1.60
2019-01-30T05:46:53.938Z,1.61
2019-01-30T05:49:22.996Z,1.59
2019-01-30T05:51:52.093Z,1.58
2019-01-30T05:54:21.164Z,1.57
2019-01-30T05:56:50.241Z,1.59
2019-01-30T05:59:19.407Z,1.58
2019-01-30T06:01:48.480Z,1.58
2019-01-30T06:04:17.534Z,1.59
2019-01-30T06:06:46.623Z,1.58
2019-01-30T06:09:15.679Z,1.55
2019-01-30T06:11:44.743Z,1.53
2019-01-30T06:14:13.917Z,1.52
2019-01-30T06:16:42.902Z,1.50
2019-01-30T06:19:11.967Z,1.45
2019-01-30T06:21:41.063Z,1.44
2019-01-30T06:24:10.112Z,1.41
2019-01-30T06:26:39.184Z,1.39
2019-01-30T06:29:08.275Z,1.36
2019-01-30T06:31:37.336Z,1.28
2019-01-30T06:34:06.402Z,1.27
2019-01-30T06:36:35.500Z,1.23
2019-01-30T06:39:04.587Z,1.18
2019-01-30T06:41:33.637Z,1.16
2019-01-30T06:44:02.760Z,1.13
2019-01-30T06:46:31.812Z,1.12
2019-01-30T06:49:00.861Z,1.19
2019-01-30T06:51:29.964Z,1.23
2019-01-30T06:53:59.032Z,1.29
2019-01-30T06:56:28.096Z,1.37
2019-01-30T06:58:57.256Z,1.44
2019-01-30T07:01:26.319Z,1.50
2019-01-30T07:03:55.476Z,1.56
2019-01-30T07:06:24.510Z,1.60
2019-01-30T07:08:53.561Z,1.63
2019-01-30T07:11:22.609Z,1.71
2019-01-30T07:13:51.703Z,1.83
2019-01-30T07:16:20.813Z,1.96
2019-01-30T07:18:49.899Z,2.08
2019-01-30T07:21:18.990Z,2.17
2019-01-30T07:23:48.089Z,2.26
2019-01-30T07:26:17.303Z,2.36
2019-01-30T07:28:46.409Z,2.53
2019-01-30T07:31:15.468Z,2.70
2019-01-30T07:33:44.515Z,2.83
2019-01-30T07:36:13.597Z,2.95
2019-01-30T07:38:42.653Z,3.07
2019-01-30T07:41:11.713Z,3.22
2019-01-30T07:43:40.806Z,3.38
2019-01-30T07:46:09.867Z,3.56
2019-01-30T07:48:38.929Z,3.68
2019-01-30T07:51:08.028Z,3.80
2019-01-30T07:53:37.097Z,3.85
2019-01-30T07:56:06.164Z,3.99
2019-01-30T07:58:35.310Z,4.12
2019-01-30T08:01:04.335Z,4.27
2019-01-30T08:03:33.380Z,4.37
2019-01-30T08:06:02.502Z,4.41
2019-01-30T08:08:31.556Z,4.44
2019-01-30T08:11:00.606Z,4.58
2019-01-30T08:13:29.748Z,4.65
2019-01-30T08:15:58.805Z,4.74
2019-01-30T08:18:27.865Z,4.80
2019-01-30T08:20:56.965Z,4.86
2019-01-30T08:23:26.343Z,4.98
2019-01-30T08:25:55.285Z,5.11
2019-01-30T08:28:24.195Z,5.01
2019-01-30T08:30:53.383Z,4.91
2019-01-30T08:33:22.266Z,4.74
2019-01-30T08:35:51.361Z,4.64
2019-01-30T08:38:20.422Z,4.65
2019-01-30T08:40:49.479Z,4.78
2019-01-30T08:43:18.566Z,4.82
2019-01-30T08:45:47.615Z,4.80
2019-01-30T08:48:16.671Z,4.86
2019-01-30T08:50:45.748Z,4.90
2019-01-30T08:53:14.806Z,4.90
2019-01-30T08:55:43.945Z,4.80
2019-01-30T08:58:12.977Z,4.80
2019-01-30T09:00:42.026Z,4.74
2019-01-30T09:03:15.043Z,4.64
2019-01-30T09:05:40.190Z,4.53
2019-01-30T09:08:09.250Z,4.50
2019-01-30T09:10:38.297Z,4.59
2019-01-30T09:13:07.383Z,4.70
2019-01-30T09:15:36.473Z,4.67
2019-01-30T09:18:05.537Z,4.68
2019-01-30T09:20:34.639Z,4.74
2019-01-30T09:23:03.695Z,4.74
2019-01-30T09:25:32.776Z,4.72
2019-01-30T09:28:02.207Z,4.75
2019-01-30T09:30:34.011Z,4.76
2019-01-30T09:33:03.163Z,4.80
2019-01-30T09:35:32.185Z,4.76
2019-01-30T09:38:01.279Z,4.72
2019-01-30T09:40:30.390Z,4.73
2019-01-30T09:42:59.455Z,4.76
2019-01-30T09:45:28.512Z,4.78
2019-01-30T09:47:57.608Z,4.79
2019-01-30T09:50:26.649Z,4.74
2019-01-30T09:52:55.709Z,4.70
2019-01-30T09:55:24.796Z,4.72
2019-01-30T09:57:53.838Z,4.69
2019-01-30T10:00:25.753Z,4.61
2019-01-30T10:02:54.807Z,4.49
2019-01-30T10:05:23.856Z,4.40
2019-01-30T10:07:55.015Z,4.30
2019-01-30T10:10:21.987Z,4.26
2019-01-30T10:12:51.037Z,4.28
2019-01-30T10:15:20.121Z,4.31
2019-01-30T10:17:49.169Z,4.37
2019-01-30T10:20:20.145Z,4.38
2019-01-30T10:22:49.298Z,4.33
2019-01-30T10:25:18.358Z,4.35
2019-01-30T10:27:47.420Z,4.34
2019-01-30T10:30:16.539Z,4.33
2019-01-30T10:32:45.607Z,4.39
2019-01-30T10:35:14.671Z,4.47
2019-01-30T10:37:43.802Z,4.52
2019-01-30T10:40:12.882Z,4.62
2019-01-30T10:42:42.837Z,4.74
2019-01-30T10:45:12.076Z,4.80
2019-01-30T10:47:41.130Z,4.91
2019-01-30T10:50:11.015Z,5.01
2019-01-30T10:52:40.113Z,5.08
2019-01-30T10:55:09.995Z,5.13
2019-01-30T10:57:39.056Z,5.13
2019-01-30T11:00:08.138Z,5.14
2019-01-30T11:02:37.203Z,5.17
2019-01-30T11:05:06.271Z,5.16
2019-01-30T11:07:35.641Z,5.13
2019-01-30T11:10:04.698Z,5.07
2019-01-30T11:12:33.762Z,5.04
2019-01-30T11:15:03.368Z,4.97
2019-01-30T11:17:32.204Z,4.92
2019-01-30T11:20:01.271Z,4.89
2019-01-30T11:22:30.366Z,4.87
2019-01-30T11:24:59.430Z,4.85
2019-01-30T11:27:28.487Z,4.82
2019-01-30T11:29:57.604Z,4.81
2019-01-30T11:32:26.680Z,4.77
2019-01-30T11:34:55.739Z,4.70
2019-01-30T11:37:24.823Z,4.62
2019-01-30T11:39:53.890Z,4.55
2019-01-30T11:42:23.019Z,4.47
2019-01-30T11:44:52.925Z,4.36
2019-01-30T11:47:21.994Z,4.28
2019-01-30T11:49:51.061Z,4.20
2019-01-30T11:52:20.498Z,4.14
2019-01-30T11:54:49.556Z,4.08
2019-01-30T11:57:18.622Z,4.03
2019-01-30T11:59:47.710Z,4.00
2019-01-30T12:02:16.786Z,3.95
2019-01-30T12:04:45.847Z,3.90
2019-01-30T12:07:14.940Z,3.86
2019-01-30T12:09:43.998Z,3.82
2019-01-30T12:12:13.063Z,3.79
2019-01-30T12:14:42.175Z,3.74
2019-01-30T12:17:11.235Z,3.73
2019-01-30T12:19:40.293Z,3.72
2019-01-30T12:22:09.376Z,3.72
2019-01-30T12:24:38.426Z,3.74
2019-01-30T12:27:07.494Z,3.77
2019-01-30T12:29:36.574Z,3.81
2019-01-30T12:32:05.642Z,3.83
2019-01-30T12:34:34.697Z,3.85
2019-01-30T12:37:03.802Z,3.87
2019-01-30T12:39:32.870Z,3.80
2019-01-30T12:42:01.919Z,3.81
2019-01-30T12:44:33.323Z,3.90
2019-01-30T12:47:00.075Z,3.95
2019-01-30T12:49:29.140Z,3.94
2019-01-30T12:51:58.225Z,3.87
2019-01-30T12:54:27.298Z,3.85
2019-01-30T12:56:56.364Z,3.84
2019-01-30T12:59:25.478Z,3.83
2019-01-30T13:01:54.540Z,3.79
2019-01-30T13:04:23.608Z,3.74
2019-01-30T13:06:52.698Z,3.71
2019-01-30T13:09:21.758Z,3.68
2019-01-30T13:11:50.814Z,3.61
2019-01-30T13:14:19.897Z,3.56
2019-01-30T13:16:48.952Z,3.65
2019-01-30T13:19:18.013Z,3.65
2019-01-30T13:21:47.116Z,3.67
2019-01-30T13:24:16.171Z,3.68
2019-01-30T13:26:45.240Z,3.68
2019-01-30T13:29:14.335Z,3.71
2019-01-30T13:31:43.401Z,3.81
2019-01-30T13:34:12.448Z,3.89
2019-01-30T13:36:41.547Z,3.97
2019-01-30T13:39:10.612Z,4.01
2019-01-30T13:41:39.679Z,4.03
2019-01-30T13:44:08.827Z,4.01
2019-01-30T13:46:37.869Z,3.99
2019-01-30T13:49:06.939Z,3.97
2019-01-30T13:51:36.035Z,4.00
2019-01-30T13:54:05.071Z,3.95
2019-01-30T13:56:34.135Z,3.97
2019-01-30T13:59:03.221Z,3.96
2019-01-30T14:01:32.287Z,3.91
2019-01-30T14:04:01.353Z,3.89
2019-01-30T14:06:30.919Z,3.87
2019-01-30T14:08:59.964Z,3.82
2019-01-30T14:11:29.035Z,3.74
2019-01-30T14:13:58.116Z,3.73
2019-01-30T14:16:27.583Z,3.69
2019-01-30T14:18:56.567Z,3.64
2019-01-30T14:21:25.673Z,3.65
2019-01-30T14:23:54.770Z,3.62
2019-01-30T14:26:23.838Z,3.60
2019-01-30T14:28:52.946Z,3.54
2019-01-30T14:31:22.031Z,3.50
2019-01-30T14:33:51.066Z,3.44
2019-01-30T14:36:20.242Z,3.37
2019-01-30T14:38:49.335Z,3.30
2019-01-30T14:41:18.375Z,3.23
2019-01-30T14:43:47.463Z,3.17
2019-01-30T14:46:16.517Z,3.10
2019-01-30T14:48:46.343Z,3.05
2019-01-30T14:51:16.381Z,2.96
2019-01-30T14:53:45.930Z,2.89
2019-01-30T14:56:14.866Z,2.81
2019-01-30T14:58:43.981Z,2.71
2019-01-30T15:01:13.050Z,2.62
2019-01-30T15:03:42.119Z,2.54
2019-01-30T15:06:11.298Z,2.43
2019-01-30T15:08:40.342Z,2.35
2019-01-30T15:11:09.510Z,2.26
2019-01-30T15:13:38.758Z,2.17
2019-01-30T15:16:07.822Z,2.08
2019-01-30T15:18:36.934Z,1.99
2019-01-30T15:21:05.989Z,1.89
2019-01-30T15:23:35.086Z,1.80
2019-01-30T15:26:04.189Z,1.71
2019-01-30T15:28:33.291Z,1.64
2019-01-30T15:31:02.356Z,1.56
2019-01-30T15:33:31.427Z,1.51
2019-01-30T15:36:00.537Z,1.46
2019-01-30T15:38:29.606Z,1.39
2019-01-30T15:40:58.674Z,1.34
2019-01-30T15:43:27.762Z,1.29
2019-01-30T15:45:56.825Z,1.24
2019-01-30T15:48:25.881Z,1.18
2019-01-30T15:50:55.165Z,1.12
2019-01-30T15:53:24.128Z,1.07
2019-01-30T15:55:53.205Z,1.04
2019-01-30T15:58:22.315Z,1.03
2019-01-30T16:00:51.415Z,1.01
2019-01-30T16:03:20.502Z,0.98
2019-01-30T16:05:49.635Z,0.96
2019-01-30T16:08:18.699Z,0.93
2019-01-30T16:10:47.777Z,0.91
2019-01-30T16:13:16.872Z,0.89
2019-01-30T16:15:45.995Z,0.88
2019-01-30T16:18:15.072Z,0.86
2019-01-30T16:20:44.254Z,0.82
2019-01-30T16:23:13.321Z,0.78
2019-01-30T16:25:42.398Z,0.72
2019-01-30T16:28:11.493Z,0.66
2019-01-30T16:30:42.245Z,0.61
2019-01-30T16:33:09.891Z,0.58
2019-01-30T16:35:38.989Z,0.54
2019-01-30T16:38:08.265Z,0.50
2019-01-30T16:40:37.285Z,0.45
2019-01-30T16:43:06.809Z,0.41
2019-01-30T16:45:35.882Z,0.39
2019-01-30T16:48:04.966Z,0.35
2019-01-30T16:50:34.536Z,0.30
2019-01-30T16:53:03.424Z,0.25
2019-01-30T16:55:32.490Z,0.24
2019-01-30T16:58:01.585Z,0.22
2019-01-30T17:00:30.649Z,0.21
2019-01-30T17:02:59.726Z,0.20
2019-01-30T17:05:28.858Z,0.20
2019-01-30T17:07:57.929Z,0.20
2019-01-30T17:10:27.001Z,0.19
2019-01-30T17:12:56.081Z,0.18
2019-01-30T17:15:25.198Z,0.17
2019-01-30T17:17:54.194Z,0.15
2019-01-30T17:20:23.288Z,0.12
2019-01-30T17:22:52.361Z,0.11
2019-01-30T17:25:21.414Z,0.09
2019-01-30T17:27:50.538Z,0.06
2019-01-30T17:30:20.423Z,0.04
2019-01-30T17:32:49.488Z,0.02
2019-01-30T17:35:18.976Z,0.04
2019-01-30T17:37:47.971Z,0.04
2019-01-30T17:40:17.035Z,0.04
2019-01-30T17:42:46.125Z,0.04
2019-01-30T17:45:15.189Z,0.04
2019-01-30T17:47:44.252Z,0.02
2019-01-30T17:50:13.685Z,0.01
2019-01-30T17:52:42.748Z,-0.01
2019-01-30T17:55:12.788Z,-0.03
2019-01-30T17:57:41.886Z,-0.06
2019-01-30T18:00:12.764Z,-0.06
2019-01-30T18:02:41.845Z,-0.09
2019-01-30T18:05:10.949Z,-0.11
2019-01-30T18:07:40.018Z,-0.14
2019-01-30T18:10:09.859Z,-0.18
2019-01-30T18:12:39.139Z,-0.21
2019-01-30T18:15:08.217Z,-0.23
2019-01-30T18:17:37.290Z,-0.27
2019-01-30T18:20:08.052Z,-0.29
2019-01-30T18:22:35.712Z,-0.32
2019-01-30T18:25:04.801Z,-0.35
2019-01-30T18:27:33.957Z,-0.36
2019-01-30T18:30:03.031Z,-0.38
2019-01-30T18:32:32.108Z,-0.40
2019-01-30T18:35:01.232Z,-0.42
2019-01-30T18:37:30.302Z,-0.45
2019-01-30T18:39:59.390Z,-0.48
2019-01-30T18:42:28.495Z,-0.52
2019-01-30T18:44:57.583Z,-0.56
2019-01-30T18:47:26.669Z,-0.57
2019-01-30T18:49:55.773Z,-0.59
2019-01-30T18:52:24.856Z,-0.62
2019-01-30T18:54:53.951Z,-0.64
2019-01-30T18:57:23.975Z,-0.66
2019-01-30T18:59:53.051Z,-0.68
2019-01-30T19:02:22.532Z,-0.68
2019-01-30T19:04:51.972Z,-0.70
2019-01-30T19:07:20.964Z,-0.71
2019-01-30T19:09:50.040Z,-0.76
2019-01-30T19:12:19.156Z,-0.80
2019-01-30T19:14:48.238Z,-0.81
2019-01-30T19:17:17.317Z,-0.82
2019-01-30T19:19:46.448Z,-0.84
2019-01-30T19:22:15.861Z,-0.86
2019-01-30T19:24:44.867Z,-0.86
2019-01-30T19:27:13.975Z,-0.86
2019-01-30T19:29:43.067Z,-0.87
2019-01-30T19:32:12.138Z,-0.88
2019-01-30T19:34:41.262Z,-0.89
2019-01-30T19:37:10.336Z,-0.91
2019-01-30T19:39:39.423Z,-0.92
2019-01-30T19:42:08.566Z,-0.95
2019-01-30T19:44:37.655Z,-1.00
2019-01-30T19:47:06.754Z,-1.02
2019-01-30T19:49:35.871Z,-1.05
2019-01-30T19:52:04.948Z,-1.07
2019-01-30T19:54:34.038Z,-1.10
2019-01-30T19:57:03.147Z,-1.13
2019-01-30T20:02:37.106Z,-1.15
2019-01-30T20:20:39.829Z,-1.36
2019-01-30T20:23:08.980Z,-1.41
2019-01-30T20:25:38.130Z,-1.41
2019-01-30T20:28:08.237Z,-1.43
2019-01-30T20:30:36.552Z,-1.44
2019-01-30T20:33:07.060Z,-1.44
2019-01-30T20:35:35.164Z,-1.43
2019-01-30T20:38:05.156Z,-1.41
2019-01-30T20:40:33.465Z,-1.42
2019-01-30T20:43:02.789Z,-1.44
2019-01-30T20:45:33.757Z,-1.43
2019-01-30T20:48:01.433Z,-1.44
2019-01-30T20:50:31.890Z,-1.45
2019-01-30T20:53:00.787Z,-1.46
2019-01-30T20:55:30.273Z,-1.48
2019-01-30T20:57:59.271Z,-1.49
2019-01-30T21:00:29.102Z,-1.50
2019-01-30T21:02:58.756Z,-1.49
2019-01-30T21:05:26.536Z,-1.50
2019-01-30T21:07:55.700Z,-1.52
2019-01-30T21:10:25.890Z,-1.52
2019-01-30T21:12:55.947Z,-1.54
2019-01-30T21:15:25.085Z,-1.56
2019-01-30T21:17:53.400Z,-1.58
2019-01-30T21:20:22.846Z,-1.58
2019-01-30T21:23:13.399Z,-1.61
2019-01-30T21:25:51.336Z,-1.62
2019-01-30T21:34:32.294Z,-1.63
2019-01-30T21:42:50.733Z,-1.16
2019-01-30T21:45:19.723Z,-1.15
2019-01-30T21:56:21.758Z,-0.68
2019-01-30T21:58:51.353Z,-0.68
2019-01-30T22:01:20.752Z,-0.69
2019-01-30T22:03:50.512Z,-0.64
2019-01-30T22:09:20.940Z,-0.59
2019-01-30T22:12:06.723Z,-0.58
2019-01-30T22:15:06.465Z,-0.56
2019-01-30T22:23:51.311Z,-0.38
